Time;durP1;ratioP1;P1;durP2;ratioP2;P2;SDS_P1;SDS_P2;PMS_P1;PMS_P2;Temp;Humidity;BMP_temperature;BMP_pressure;BME280_temperature;BME280_humidity;BME280_pressure;Samples;Min_cycle;Max_cycle;Signal;HPM_P1;HPM_P2
2022/04/05 00:00:39;;;;;;;;;;;;;;;21.11;42.13;99256.81;4974671;28;4022;-57
2022/04/05 00:03:05;;;;;;;;;;;;;;;21.10;42.16;99258.25;4975274;28;4580;-58
2022/04/05 00:05:32;;;;;;;;;;;;;;;21.09;42.20;99268.28;4976265;28;4267;-58
2022/04/05 00:07:58;;;;;;;;;;;;;;;21.10;42.15;99275.50;4977509;28;4465;-58
2022/04/05 00:10:25;;;;;;;;;;;;;;;21.09;42.14;99276.91;4976296;28;4214;-58
2022/04/05 00:12:52;;;;;;;;;;;;;;;21.09;42.18;99271.16;4975810;28;4132;-58
2022/04/05 00:15:18;;;;;;;;;;;;;;;21.08;42.07;99272.59;4974788;28;4190;-58
2022/04/05 00:17:44;;;;;;;;;;;;;;;21.06;42.11;99273.28;4978221;28;4063;-58
2022/04/05 00:20:11;;;;;;;;;;;;;;;21.07;41.98;99285.50;4976814;28;5245;-59
2022/04/05 00:22:37;;;;;;;;;;;;;;;21.07;42.03;99279.75;4978180;28;5441;-58
2022/04/05 00:25:04;;;;;;;;;;;;;;;21.06;42.16;99284.06;4975649;28;4166;-58
2022/04/05 00:27:30;;;;;;;;;;;;;;;21.06;42.03;99278.31;4977886;28;4210;-58
2022/04/05 00:29:59;;;;;;;;;;;;;;;21.04;42.23;99275.38;4973507;28;4205;-58
2022/04/05 00:32:26;;;;;;;;;;;;;;;21.01;42.19;99271.03;4972744;28;4519;-58
2022/04/05 00:34:52;;;;;;;;;;;;;;;21.04;42.08;99281.88;4972038;28;4019;-58
2022/04/05 00:37:18;;;;;;;;;;;;;;;21.03;42.02;99266.03;4972611;28;4126;-58
2022/04/05 00:39:45;;;;;;;;;;;;;;;21.02;42.18;99278.22;4973968;28;5644;-58
2022/04/05 00:42:11;;;;;;;;;;;;;;;21.02;41.93;99278.22;4971794;28;4539;-59
2022/04/05 00:44:38;;;;;;;;;;;;;;;21.03;42.01;99282.56;4975754;28;4520;-58
2022/04/05 00:47:11;;;;;;;;;;;;;;;21.03;41.91;99291.22;4973535;28;4163;-58
2022/04/05 00:49:38;;;;;;;;;;;;;;;21.02;41.95;99286.84;4975333;28;4241;-57
2022/04/05 00:52:04;;;;;;;;;;;;;;;21.02;41.90;99289.75;4971327;28;5600;-58
2022/04/05 00:54:30;;;;;;;;;;;;;;;21.01;41.75;99276.78;4974059;28;4470;-58
2022/04/05 00:56:57;;;;;;;;;;;;;;;20.99;42.12;99286.09;4974976;28;4143;-58
2022/04/05 00:59:23;;;;;;;;;;;;;;;20.98;42.16;99290.41;4977794;28;5097;-58
2022/04/05 01:01:50;;;;;;;;;;;;;;;20.99;42.04;99288.25;4972855;28;4251;-58
2022/04/05 01:04:16;;;;;;;;;;;;;;;20.98;41.95;99292.53;4972381;28;4184;-58
2022/04/05 01:06:43;;;;;;;;;;;;;;;20.97;41.95;99294.69;4974427;28;4124;-58
2022/04/05 01:09:10;;;;;;;;;;;;;;;20.97;42.09;99288.22;4971632;28;4258;-58
2022/04/05 01:11:36;;;;;;;;;;;;;;;20.97;42.11;99293.97;4974987;28;4251;-58
2022/04/05 01:14:03;;;;;;;;;;;;;;;20.97;41.94;99305.47;4971772;28;4238;-58
2022/04/05 01:16:29;;;;;;;;;;;;;;;20.95;41.94;99296.81;4976959;28;5357;-58
2022/04/05 01:19:12;;;;;;;;;;;;;;;20.95;41.80;99297.53;4977728;28;4484;-58
2022/04/05 01:21:39;;;;;;;;;;;;;;;20.93;41.86;99309.72;4979366;28;4426;-58
2022/04/05 01:24:09;;;;;;;;;;;;;;;20.93;41.85;99306.84;4977979;28;4181;-58
2022/04/05 01:26:42;;;;;;;;;;;;;;;20.95;41.78;99319.81;4977836;28;4233;-58
2022/04/05 01:29:08;;;;;;;;;;;;;;;20.95;41.95;99296.81;4973617;28;4227;-58
2022/04/05 01:31:38;;;;;;;;;;;;;;;20.94;41.93;99313.34;4969141;28;4280;-58
2022/04/05 01:34:04;;;;;;;;;;;;;;;20.93;41.85;99324.09;4971449;28;5162;-58
2022/04/05 01:36:31;;;;;;;;;;;;;;;20.91;41.69;99332.72;4978552;28;4060;-58
2022/04/05 01:38:57;;;;;;;;;;;;;;;20.91;41.80;99321.22;4976400;28;4183;-58
2022/04/05 01:41:24;;;;;;;;;;;;;;;20.92;41.75;99316.91;4974480;28;4385;-58
2022/04/05 01:43:50;;;;;;;;;;;;;;;20.91;41.73;99312.56;4972519;28;4328;-58
2022/04/05 01:46:16;;;;;;;;;;;;;;;20.90;41.90;99319.72;4974365;28;5107;-58
2022/04/05 01:48:43;;;;;;;;;;;;;;;20.90;41.86;99316.13;4971910;28;4588;-58
2022/04/05 01:51:09;;;;;;;;;;;;;;;20.90;41.79;99321.88;4973278;28;5488;-58
2022/04/05 01:53:35;;;;;;;;;;;;;;;20.89;41.85;99315.41;4975258;28;4286;-58
2022/04/05 01:56:02;;;;;;;;;;;;;;;20.87;41.86;99318.25;4974311;28;4188;-58
2022/04/05 01:58:28;;;;;;;;;;;;;;;20.89;41.95;99324.03;4974061;28;4209;-58
2022/04/05 02:00:55;;;;;;;;;;;;;;;20.88;41.89;99319.69;4970622;28;4540;-58
2022/04/05 02:03:21;;;;;;;;;;;;;;;20.91;41.89;99309.69;4974150;28;5410;-58
2022/04/05 02:05:48;;;;;;;;;;;;;;;20.93;41.79;99306.84;4972980;28;4370;-58
2022/04/05 02:08:14;;;;;;;;;;;;;;;20.92;41.81;99316.91;4974172;28;5402;-57
2022/04/05 02:10:41;;;;;;;;;;;;;;;20.91;42.00;99321.22;4955638;28;4101;-58
2022/04/05 02:13:08;;;;;;;;;;;;;;;20.90;42.00;99316.84;4971627;28;4173;-58
2022/04/05 02:15:39;;;;;;;;;;;;;;;20.93;42.16;99315.47;4974543;28;4572;-58
2022/04/05 02:18:07;;;;;;;;;;;;;;;20.91;42.07;99312.56;4972173;28;4261;-58
2022/04/05 02:20:34;;;;;;;;;;;;;;;20.92;42.25;99321.94;4970874;28;4230;-58
2022/04/05 02:23:01;;;;;;;;;;;;;;;20.93;42.12;99317.63;4977121;28;4063;-60
2022/04/05 02:25:48;;;;;;;;;;;;;;;20.92;42.30;99316.91;4974408;28;4135;-58
2022/04/05 02:28:18;;;;;;;;;;;;;;;20.89;42.51;99324.03;4973913;28;4376;-57
2022/04/05 02:30:50;;;;;;;;;;;;;;;20.89;42.27;99324.03;4973411;28;4496;-58
2022/04/05 02:33:20;;;;;;;;;;;;;;;20.87;42.31;99318.25;4973382;28;4131;-58
2022/04/05 02:35:48;;;;;;;;;;;;;;;20.90;42.11;99330.53;4973965;28;4542;-58
2022/04/05 02:38:14;;;;;;;;;;;;;;;20.88;42.28;99325.44;4957531;28;4214;-58
2022/04/05 02:40:41;;;;;;;;;;;;;;;20.93;42.25;99335.59;4956453;28;4272;-57
2022/04/05 02:43:11;;;;;;;;;;;;;;;20.90;42.34;99319.72;4972377;28;4248;-58
2022/04/05 02:45:38;;;;;;;;;;;;;;;20.93;42.05;99324.09;4969180;28;4254;-58
2022/04/05 02:48:04;;;;;;;;;;;;;;;20.93;42.19;99335.59;4971599;28;4295;-58
2022/04/05 02:50:32;;;;;;;;;;;;;;;20.90;42.27;99336.28;4973417;28;4220;-58
2022/04/05 02:52:58;;;;;;;;;;;;;;;20.88;42.40;99334.06;4960483;28;4337;-58
2022/04/05 02:55:25;;;;;;;;;;;;;;;20.89;42.55;99335.56;4973955;28;5120;-57
2022/04/05 02:57:52;;;;;;;;;;;;;;;20.91;42.30;99346.34;4973936;28;4288;-58
2022/04/05 03:00:28;;;;;;;;;;;;;;;20.89;42.52;99347.06;4976543;28;5439;-58
2022/04/05 03:02:58;;;;;;;;;;;;;;;20.88;42.44;99357.09;4962533;28;4529;-58
2022/04/05 03:05:25;;;;;;;;;;;;;;;20.88;42.57;99347.75;4973203;28;4315;-58
2022/04/05 03:07:57;;;;;;;;;;;;;;;20.89;42.55;99358.56;4977259;28;4133;-58
2022/04/05 03:10:25;;;;;;;;;;;;;;;20.90;42.42;99360.00;4976172;28;3983;-58
2022/04/05 03:12:52;;;;;;;;;;;;;;;20.90;42.56;99362.88;4978266;28;4192;-58
2022/04/05 03:15:20;;;;;;;;;;;;;;;20.92;42.51;99365.81;4957465;28;4131;-58
2022/04/05 03:17:48;;;;;;;;;;;;;;;20.92;42.47;99368.69;4977622;28;4100;-57
2022/04/05 03:20:20;;;;;;;;;;;;;;;20.90;42.49;99367.91;4977230;28;4183;-57
2022/04/05 03:22:49;;;;;;;;;;;;;;;20.90;42.57;99356.41;4974207;28;4199;-58
2022/04/05 03:25:15;;;;;;;;;;;;;;;20.92;42.49;99360.06;4977936;28;4043;-58
2022/04/05 03:27:42;;;;;;;;;;;;;;;20.92;42.49;99357.19;4971149;28;4001;-58
2022/04/05 03:30:11;;;;;;;;;;;;;;;20.91;42.63;99355.72;4972019;28;4222;-58
2022/04/05 03:32:38;;;;;;;;;;;;;;;20.93;42.47;99361.50;4958374;28;4129;-58
2022/04/05 03:35:04;;;;;;;;;;;;;;;20.92;42.44;99351.41;4974059;28;5520;-58
2022/04/05 03:37:31;;;;;;;;;;;;;;;20.92;42.27;99362.22;4972287;28;4268;-58
2022/04/05 03:39:59;;;;;;;;;;;;;;;20.95;42.56;99368.72;4977600;28;4016;-58
2022/04/05 03:42:26;;;;;;;;;;;;;;;20.96;42.51;99373.06;4976365;28;4139;-57
2022/04/05 03:44:52;;;;;;;;;;;;;;;20.92;42.41;99371.56;4972590;28;3965;-58
2022/04/05 03:47:19;;;;;;;;;;;;;;;20.93;42.38;99378.03;4973679;28;4393;-58
2022/04/05 03:49:46;;;;;;;;;;;;;;;20.91;42.56;99384.50;4975949;28;4199;-58
2022/04/05 03:52:12;;;;;;;;;;;;;;;20.92;42.56;99385.94;4976184;28;5530;-58
2022/04/05 03:54:38;;;;;;;;;;;;;;;20.93;42.57;99383.78;4971215;28;4179;-58
2022/04/05 03:57:09;;;;;;;;;;;;;;;20.93;42.57;99390.28;4973192;28;5599;-58
2022/04/05 03:59:36;;;;;;;;;;;;;;;20.95;42.38;99380.25;4974539;28;4209;-58
2022/04/05 04:02:03;;;;;;;;;;;;;;;20.93;42.48;99386.69;4971507;28;5364;-58
2022/04/05 04:04:30;;;;;;;;;;;;;;;20.95;42.46;99397.50;4975512;28;4048;-58
2022/04/05 04:06:57;;;;;;;;;;;;;;;20.97;42.37;99398.28;4973715;28;4179;-58
2022/04/05 04:09:25;;;;;;;;;;;;;;;20.97;42.49;99391.78;4960015;28;4188;-58
2022/04/05 04:11:53;;;;;;;;;;;;;;;20.95;42.48;99406.13;4974779;28;4427;-58
2022/04/05 04:14:19;;;;;;;;;;;;;;;20.93;42.59;99407.53;4973790;28;4117;-58
2022/04/05 04:16:47;;;;;;;;;;;;;;;20.93;42.59;99403.94;4974103;28;4363;-58
2022/04/05 04:19:14;;;;;;;;;;;;;;;20.93;42.51;99410.41;4976396;28;6387;-58
2022/04/05 04:21:40;;;;;;;;;;;;;;;20.93;42.45;99404.66;4975186;28;4424;-58
2022/04/05 04:24:07;;;;;;;;;;;;;;;20.97;42.49;99414.81;4972824;28;4146;-58
2022/04/05 04:26:34;;;;;;;;;;;;;;;20.96;42.55;99407.59;4973978;28;3980;-58
2022/04/05 04:29:04;;;;;;;;;;;;;;;20.98;42.47;99413.38;4976801;28;4197;-58
2022/04/05 04:31:31;;;;;;;;;;;;;;;20.98;42.39;99410.50;4974501;28;4189;-58
2022/04/05 04:33:58;;;;;;;;;;;;;;;20.97;42.31;99404.03;4979383;28;4162;-58
2022/04/05 04:36:24;;;;;;;;;;;;;;;20.99;42.27;99411.97;4974148;28;4229;-58
2022/04/05 04:38:52;;;;;;;;;;;;;;;21.00;42.21;99419.19;4973852;28;4276;-58
2022/04/05 04:41:20;;;;;;;;;;;;;;;20.99;42.35;99423.50;4976678;28;5260;-58
2022/04/05 04:43:46;;;;;;;;;;;;;;;20.97;42.42;99421.28;4974603;28;5320;-58
2022/04/05 04:46:12;;;;;;;;;;;;;;;20.97;42.33;99420.56;4970666;28;4269;-58
2022/04/05 04:48:39;;;;;;;;;;;;;;;20.99;42.32;99423.50;4975150;28;4176;-58
2022/04/05 04:51:05;;;;;;;;;;;;;;;21.00;42.26;99424.94;4974881;28;5367;-59
2022/04/05 04:53:31;;;;;;;;;;;;;;;21.03;42.07;99435.09;4976180;28;4127;-58
2022/04/05 04:55:58;;;;;;;;;;;;;;;21.05;42.33;99429.34;4974480;28;4323;-58
2022/04/05 04:58:34;;;;;;;;;;;;;;;21.05;42.16;99443.75;4970651;28;4159;-57
2022/04/05 05:01:00;;;;;;;;;;;;;;;20.98;42.10;99442.91;4975417;28;4169;-62
2022/04/05 05:03:26;;;;;;;;;;;;;;;20.87;41.51;99441.94;4967514;28;4028;-58
2022/04/05 05:05:54;;;;;;;;;;;;;;;20.93;41.60;99439.19;4977103;28;5333;-59
2022/04/05 05:08:20;;;;;;;;;;;;;;;20.96;41.63;99447.88;4972319;28;4578;-59
2022/04/05 05:10:47;;;;;;;;;;;;;;;21.03;41.70;99452.34;4976649;28;4234;-60
2022/04/05 05:13:13;;;;;;;;;;;;;;;20.96;41.83;99453.63;4965434;28;5876;-61
2022/04/05 05:15:39;;;;;;;;;;;;;;;20.98;41.92;99456.53;4973016;28;5601;-58
2022/04/05 05:18:06;;;;;;;;;;;;;;;20.84;42.05;99466.31;4967475;28;4254;-63
2022/04/05 05:20:32;;;;;;;;;;;;;;;20.84;41.69;99454.81;4973186;28;4362;-61
2022/04/05 05:22:59;;;;;;;;;;;;;;;20.94;41.91;99460.09;4971765;28;4206;-61
2022/04/05 05:25:25;;;;;;;;;;;;;;;20.95;41.94;99473.03;4974816;28;4306;-61
2022/04/05 05:27:52;;;;;;;;;;;;;;;20.97;41.90;99469.50;4971909;28;4667;-60
2022/04/05 05:30:18;;;;;;;;;;;;;;;20.97;42.09;99483.88;4977046;28;5469;-61
2022/04/05 05:32:46;;;;;;;;;;;;;;;20.97;41.91;99478.13;4974090;28;4228;-61
2022/04/05 05:35:19;;;;;;;;;;;;;;;20.97;42.04;99490.34;4976496;28;4596;-58
2022/04/05 05:37:46;;;;;;;;;;;;;;;20.96;42.01;99488.16;4972888;28;4259;-58
2022/04/05 05:40:12;;;;;;;;;;;;;;;20.96;41.95;99491.03;4973669;28;4158;-58
2022/04/05 05:42:45;;;;;;;;;;;;;;;20.97;41.93;99504.03;4974907;28;4883;-57
2022/04/05 05:45:12;;;;;;;;;;;;;;;20.96;42.00;99511.94;4969280;28;3932;-59
2022/04/05 05:47:38;;;;;;;;;;;;;;;21.03;41.99;99513.53;4970619;28;4524;-59
2022/04/05 05:50:05;;;;;;;;;;;;;;;21.06;41.89;99511.41;4973409;28;4333;-59
2022/04/05 05:52:31;;;;;;;;;;;;;;;21.14;41.75;99520.22;4967690;28;4270;-59
2022/04/05 05:54:57;;;;;;;;;;;;;;;21.13;42.02;99524.53;4972337;28;5412;-59
2022/04/05 05:57:24;;;;;;;;;;;;;;;21.11;41.84;99516.56;4974927;28;4490;-59
2022/04/05 05:59:50;;;;;;;;;;;;;;;21.10;41.83;99528.78;4978422;28;4541;-59
2022/04/05 06:02:16;;;;;;;;;;;;;;;21.07;42.02;99528.00;4974402;28;4208;-59
2022/04/05 06:04:43;;;;;;;;;;;;;;;21.09;42.08;99541.69;4977968;28;5190;-59
2022/04/05 06:07:09;;;;;;;;;;;;;;;21.13;42.13;99541.78;4976125;28;4186;-58
2022/04/05 06:09:36;;;;;;;;;;;;;;;21.22;41.84;99540.53;4975277;28;4269;-61
2022/04/05 06:12:02;;;;;;;;;;;;;;;21.22;41.87;99554.94;4969774;28;5230;-61
2022/04/05 06:14:29;;;;;;;;;;;;;;;21.16;41.87;99557.69;4969093;28;4368;-60
2022/04/05 06:16:55;;;;;;;;;;;;;;;21.16;41.79;99551.91;4968603;28;4227;-61
2022/04/05 06:19:21;;;;;;;;;;;;;;;21.19;41.86;99559.19;4974301;28;4266;-60
2022/04/05 06:21:48;;;;;;;;;;;;;;;21.17;41.78;99562.03;4975413;28;4142;-60
2022/04/05 06:24:14;;;;;;;;;;;;;;;21.28;41.59;99569.47;4976402;28;4338;-60
2022/04/05 06:26:40;;;;;;;;;;;;;;;21.46;41.68;99566.28;4975158;28;4170;-59
2022/04/05 06:29:07;;;;;;;;;;;;;;;21.58;41.72;99582.34;4975409;28;5341;-59
2022/04/05 06:31:33;;;;;;;;;;;;;;;21.69;41.26;99581.91;4969269;28;4100;-56
2022/04/05 06:34:02;;;;;;;;;;;;;;;21.88;40.73;99579.38;4975049;28;5347;-57
2022/04/05 06:36:29;;;;;;;;;;;;;;;21.90;40.81;99593.84;4980628;28;4208;-50
2022/04/05 06:38:55;;;;;;;;;;;;;;;21.93;40.64;99592.44;4979908;28;4178;-49
2022/04/05 06:41:22;;;;;;;;;;;;;;;22.11;40.90;99606.50;4976840;28;4167;-55
2022/04/05 06:43:48;;;;;;;;;;;;;;;22.30;40.54;99599.66;4980170;28;4235;-53
2022/04/05 06:46:15;;;;;;;;;;;;;;;22.37;40.30;99603.38;4980127;28;4264;-53
2022/04/05 06:48:41;;;;;;;;;;;;;;;22.46;40.39;99605.00;4972747;28;4187;-59
2022/04/05 06:51:08;;;;;;;;;;;;;;;22.51;40.08;99612.28;4971525;28;4259;-56
2022/04/05 06:53:40;;;;;;;;;;;;;;;22.53;40.14;99608.72;4969615;28;4074;-61
2022/04/05 06:56:09;;;;;;;;;;;;;;;22.55;40.02;99612.34;4973475;28;4388;-60
2022/04/05 06:58:35;;;;;;;;;;;;;;;22.56;39.96;99625.38;4972883;28;5437;-61
2022/04/05 07:01:01;;;;;;;;;;;;;;;22.56;40.22;99631.16;4974934;28;4239;-54
2022/04/05 07:03:28;;;;;;;;;;;;;;;22.45;40.16;99628.75;4969689;28;5192;-55
2022/04/05 07:06:00;;;;;;;;;;;;;;;22.40;40.38;99630.81;4973953;28;4375;-56
2022/04/05 07:08:27;;;;;;;;;;;;;;;22.37;40.28;99638.72;4975337;28;4131;-55
2022/04/05 07:10:53;;;;;;;;;;;;;;;22.38;40.34;99639.47;4974551;28;4142;-58
2022/04/05 07:13:19;;;;;;;;;;;;;;;22.40;40.16;99642.38;4972056;28;4477;-53
2022/04/05 07:15:46;;;;;;;;;;;;;;;22.41;40.52;99643.84;4974309;28;4155;-56
2022/04/05 07:18:13;;;;;;;;;;;;;;;22.38;40.57;99651.72;4974340;28;4545;-54
2022/04/05 07:20:39;;;;;;;;;;;;;;;22.44;40.63;99645.31;4972869;28;5441;-58
2022/04/05 07:23:05;;;;;;;;;;;;;;;22.46;40.48;99636.00;4972499;28;5283;-57
2022/04/05 07:25:35;;;;;;;;;;;;;;;22.47;40.33;99655.50;4980581;28;4275;-60
2022/04/05 07:28:02;;;;;;;;;;;;;;;22.48;40.10;99656.94;4979182;28;4188;-59
2022/04/05 07:30:29;;;;;;;;;;;;;;;22.47;40.07;99652.63;4977489;28;4401;-59
2022/04/05 07:32:55;;;;;;;;;;;;;;;22.51;40.28;99658.44;4978612;28;4353;-57
2022/04/05 07:35:21;;;;;;;;;;;;;;;22.49;40.12;99649.03;4979958;28;4147;-55
2022/04/05 07:37:48;;;;;;;;;;;;;;;22.48;40.12;99659.84;4981545;28;4258;-58
2022/04/05 07:40:14;;;;;;;;;;;;;;;22.52;40.17;99662.06;4978881;28;4191;-55
2022/04/05 07:42:41;;;;;;;;;;;;;;;22.53;39.90;99672.91;4979226;28;4169;-57
2022/04/05 07:45:07;;;;;;;;;;;;;;;22.50;40.26;99657.00;4982344;28;4505;-50
2022/04/05 07:47:34;;;;;;;;;;;;;;;22.44;40.13;99664.78;4980581;28;4112;-54
2022/04/05 07:50:01;;;;;;;;;;;;;;;22.48;40.44;99671.38;4979473;28;4246;-58
2022/04/05 07:52:27;;;;;;;;;;;;;;;22.50;40.38;99674.28;4976698;28;4288;-57
2022/04/05 07:54:53;;;;;;;;;;;;;;;22.52;40.23;99677.22;4980204;28;4177;-57
2022/04/05 07:57:20;;;;;;;;;;;;;;;22.52;40.30;99680.09;4980693;28;4303;-53
2022/04/05 07:59:46;;;;;;;;;;;;;;;22.53;40.41;99672.91;4981088;28;4257;-53
2022/04/05 08:02:12;;;;;;;;;;;;;;;22.51;40.38;99687.28;4975914;28;5319;-53
2022/04/05 08:04:54;;;;;;;;;;;;;;;22.50;40.26;99685.84;4980222;28;4210;-56
2022/04/05 08:07:20;;;;;;;;;;;;;;;22.50;40.52;99691.59;4974206;28;4341;-59
2022/04/05 08:09:47;;;;;;;;;;;;;;;22.56;40.38;99688.84;4974150;28;5503;-58
2022/04/05 08:12:13;;;;;;;;;;;;;;;22.58;40.35;99685.25;4979386;28;4546;-59
2022/04/05 08:14:40;;;;;;;;;;;;;;;22.55;40.43;99692.41;4977529;28;4256;-58
2022/04/05 08:17:06;;;;;;;;;;;;;;;22.56;40.45;99700.38;4978422;28;4056;-57
2022/04/05 08:19:32;;;;;;;;;;;;;;;22.56;40.48;99699.63;4973438;28;4087;-58
2022/04/05 08:21:59;;;;;;;;;;;;;;;22.56;40.40;99700.38;4980139;28;4260;-55
2022/04/05 08:24:25;;;;;;;;;;;;;;;22.57;40.59;99707.59;4977505;28;4216;-56
2022/04/05 08:26:52;;;;;;;;;;;;;;;22.55;40.61;99710.44;4979607;28;4035;-58
2022/04/05 08:29:18;;;;;;;;;;;;;;;22.41;41.07;99718.09;4979119;28;5169;-56
2022/04/05 08:31:44;;;;;;;;;;;;;;;22.48;41.09;99705.97;4976220;28;4248;-58
2022/04/05 08:34:11;;;;;;;;;;;;;;;22.51;41.02;99721.19;4978815;28;4231;-58
2022/04/05 08:36:37;;;;;;;;;;;;;;;22.50;40.60;99719.72;4979719;28;4146;-59
2022/04/05 08:39:04;;;;;;;;;;;;;;;22.49;40.76;99718.97;4978017;28;4282;-61
2022/04/05 08:41:32;;;;;;;;;;;;;;;22.46;40.66;99723.25;4978911;28;4088;-57
2022/04/05 08:43:58;;;;;;;;;;;;;;;22.48;40.71;99711.75;4978152;28;4185;-57
2022/04/05 08:46:25;;;;;;;;;;;;;;;22.48;40.83;99720.41;4976325;28;4192;-59
2022/04/05 08:48:52;;;;;;;;;;;;;;;22.51;41.02;99724.06;4968042;28;4123;-55
2022/04/05 08:51:19;;;;;;;;;;;;;;;22.53;40.93;99736.38;4971681;28;6182;-55
2022/04/05 08:53:45;;;;;;;;;;;;;;;22.55;40.87;99738.56;4978935;28;4231;-57
2022/04/05 08:56:13;;;;;;;;;;;;;;;22.55;40.93;99739.28;4976461;28;4220;-58
2022/04/05 08:58:40;;;;;;;;;;;;;;;22.55;41.07;99727.75;4979526;28;4054;-56
2022/04/05 09:01:06;;;;;;;;;;;;;;;22.55;41.13;99750.84;4975109;28;4389;-58
2022/04/05 09:03:34;;;;;;;;;;;;;;;22.57;41.08;99742.22;4977820;28;5363;-60
2022/04/05 09:06:20;;;;;;;;;;;;;;;22.56;41.01;99755.19;4978091;28;4003;-59
2022/04/05 09:08:47;;;;;;;;;;;;;;;22.52;41.16;99739.97;4975950;28;4205;-58
2022/04/05 09:11:14;;;;;;;;;;;;;;;22.52;41.05;99745.72;4984206;28;4229;-54
2022/04/05 09:13:40;;;;;;;;;;;;;;;22.49;41.72;99739.16;4974741;28;4242;-55
2022/04/05 09:16:08;;;;;;;;;;;;;;;22.51;41.04;99750.75;4977916;28;4215;-56
2022/04/05 09:18:38;;;;;;;;;;;;;;;22.49;41.84;99744.94;4974764;28;4228;-57
2022/04/05 09:21:05;;;;;;;;;;;;;;;22.51;42.09;99741.38;4976420;28;4215;-50
2022/04/05 09:23:33;;;;;;;;;;;;;;;22.51;41.81;99747.88;4974543;28;4960;-55
2022/04/05 09:26:04;;;;;;;;;;;;;;;22.52;41.69;99740.69;4979661;28;4243;-49
2022/04/05 09:28:34;;;;;;;;;;;;;;;22.54;41.56;99737.84;4977385;28;5292;-51
2022/04/05 09:31:01;;;;;;;;;;;;;;;22.54;41.61;99740.72;4977008;28;4147;-52
2022/04/05 09:33:27;;;;;;;;;;;;;;;22.55;41.42;99750.09;4973000;28;4299;-53
2022/04/05 09:36:04;;;;;;;;;;;;;;;22.54;41.43;99751.50;4977076;28;4158;-55
2022/04/05 09:38:30;;;;;;;;;;;;;;;22.56;41.20;99755.19;4977271;28;4182;-54
2022/04/05 09:41:09;;;;;;;;;;;;;;;22.59;40.95;99756.69;4973896;28;4315;-48
2022/04/05 09:43:36;;;;;;;;;;;;;;;22.55;41.09;99753.72;4975679;28;4073;-58
2022/04/05 09:46:02;;;;;;;;;;;;;;;21.72;41.99;99753.38;4974773;28;4312;-56
2022/04/05 09:48:30;;;;;;;;;;;;;;;21.98;41.70;99755.38;4973566;28;3998;-50
2022/04/05 09:50:59;;;;;;;;;;;;;;;21.77;41.89;99747.72;4976003;28;4294;-50
2022/04/05 09:53:26;;;;;;;;;;;;;;;21.54;42.44;99759.44;4970428;28;4248;-49
2022/04/05 09:56:02;;;;;;;;;;;;;;;21.55;42.55;99760.16;4975532;28;4074;-52
2022/04/05 09:58:29;;;;;;;;;;;;;;;21.72;41.86;99753.38;4974576;28;4048;-57
2022/04/05 10:01:07;;;;;;;;;;;;;;;21.83;39.61;99753.59;4967650;28;4102;-51
2022/04/05 10:03:34;;;;;;;;;;;;;;;21.96;40.18;99752.44;4971305;28;5257;-49
2022/04/05 10:06:02;;;;;;;;;;;;;;;22.06;40.35;99761.34;4975154;28;5368;-52
2022/04/05 10:08:30;;;;;;;;;;;;;;;22.13;40.59;99760.06;4974878;28;4316;-52
2022/04/05 10:10:56;;;;;;;;;;;;;;;22.07;40.49;99759.91;4962468;28;4842;-57
2022/04/05 10:13:22;;;;;;;;;;;;;;;22.08;40.77;99764.28;4969855;28;5274;-58
2022/04/05 10:15:51;;;;;;;;;;;;;;;22.12;40.75;99758.56;4972163;28;4144;-58
2022/04/05 10:18:20;;;;;;;;;;;;;;;22.15;40.50;99762.22;4971043;28;4217;-57
2022/04/05 10:20:50;;;;;;;;;;;;;;;22.09;40.76;99765.72;4977216;28;4218;-59
2022/04/05 10:23:20;;;;;;;;;;;;;;;22.14;40.53;99763.66;4972930;28;4024;-61
2022/04/05 10:25:51;;;;;;;;;;;;;;;22.08;40.74;99755.63;4973153;28;4074;-61
2022/04/05 10:28:19;;;;;;;;;;;;;;;22.15;40.71;99762.97;4966684;28;4922;-61
2022/04/05 10:30:50;;;;;;;;;;;;;;;22.18;40.46;99761.59;4970801;28;4185;-60
2022/04/05 10:33:21;;;;;;;;;;;;;;;22.10;40.74;99767.16;4966624;28;5314;-59
2022/04/05 10:36:00;;;;;;;;;;;;;;;22.00;40.80;99763.34;4969309;28;4230;-59
2022/04/05 10:38:27;;;;;;;;;;;;;;;22.11;41.04;99751.34;4969083;28;4165;-55
2022/04/05 10:41:12;;;;;;;;;;;;;;;22.14;40.71;99761.50;4974828;28;4209;-55
2022/04/05 10:43:39;;;;;;;;;;;;;;;22.16;40.80;99752.91;4974151;28;4211;-55
2022/04/05 10:46:05;;;;;;;;;;;;;;;22.20;40.59;99754.41;4976748;28;5424;-56
2022/04/05 10:48:32;;;;;;;;;;;;;;;22.22;40.62;99760.22;4972528;28;4110;-53
2022/04/05 10:51:01;;;;;;;;;;;;;;;22.13;41.09;99751.41;4971129;28;4062;-58
2022/04/05 10:53:32;;;;;;;;;;;;;;;21.97;41.24;99753.94;4964901;28;4359;-58
2022/04/05 10:56:06;;;;;;;;;;;;;;;22.07;40.87;99748.38;4973769;28;4256;-58
2022/04/05 10:58:33;;;;;;;;;;;;;;;22.10;40.89;99754.91;4968677;28;4252;-58
2022/04/05 11:01:18;;;;;;;;;;;;;;;22.09;40.93;99747.69;4972889;28;5289;-58
2022/04/05 11:04:03;;;;;;;;;;;;;;;22.09;40.94;99745.53;4970750;28;4206;-59
2022/04/05 11:06:29;;;;;;;;;;;;;;;22.07;40.95;99747.66;4971942;28;4185;-57
2022/04/05 11:08:57;;;;;;;;;;;;;;;22.07;40.83;99745.50;4972249;28;5381;-55
2022/04/05 11:11:24;;;;;;;;;;;;;;;22.09;41.17;99747.69;4968648;28;4179;-58
2022/04/05 11:13:55;;;;;;;;;;;;;;;22.06;41.12;99737.53;4967567;28;4111;-58
2022/04/05 11:16:22;;;;;;;;;;;;;;;22.02;41.37;99752.59;4971308;28;5434;-59
2022/04/05 11:18:50;;;;;;;;;;;;;;;21.40;42.23;99746.81;4969480;28;4272;-60
2022/04/05 11:21:17;;;;;;;;;;;;;;;21.37;42.31;99742.41;4968900;28;5437;-60
2022/04/05 11:23:43;;;;;;;;;;;;;;;21.44;41.80;99739.03;4970178;28;4218;-60
2022/04/05 11:26:23;;;;;;;;;;;;;;;21.47;41.58;99754.22;4976572;28;4537;-57
2022/04/05 11:28:52;;;;;;;;;;;;;;;21.21;41.25;99752.13;4979818;28;4160;-59
2022/04/05 11:31:28;;;;;;;;;;;;;;;21.28;40.81;99744.34;4977431;28;4169;-59
2022/04/05 11:33:54;;;;;;;;;;;;;;;21.21;40.75;99751.38;4975795;28;4390;-59
2022/04/05 11:36:25;;;;;;;;;;;;;;;21.27;40.72;99746.50;4974790;28;4073;-58
2022/04/05 11:38:53;;;;;;;;;;;;;;;21.01;40.42;99745.84;4974074;28;4435;-59
2022/04/05 11:41:24;;;;;;;;;;;;;;;21.24;40.03;99742.13;4975036;28;5215;-58
2022/04/05 11:43:54;;;;;;;;;;;;;;;21.08;39.80;99741.72;4974686;28;4288;-58
2022/04/05 11:46:22;;;;;;;;;;;;;;;20.99;39.64;99748.66;4974394;28;4157;-58
2022/04/05 11:48:52;;;;;;;;;;;;;;;21.02;39.10;99738.66;4970988;28;4246;-62
2022/04/05 11:51:20;;;;;;;;;;;;;;;21.18;39.25;99744.09;4973281;28;5461;-57
2022/04/05 11:53:46;;;;;;;;;;;;;;;21.47;39.26;99734.06;4970631;28;4234;-57
2022/04/05 11:56:12;;;;;;;;;;;;;;;21.42;38.45;99744.03;4966667;28;4118;-60
2022/04/05 11:58:40;;;;;;;;;;;;;;;20.92;38.63;99736.28;4973573;28;4245;-57
2022/04/05 12:01:07;;;;;;;;;;;;;;;21.11;38.39;99734.59;4970675;28;4155;-59
2022/04/05 12:03:44;;;;;;;;;;;;;;;21.29;37.55;99748.72;4964830;28;4221;-53
2022/04/05 12:06:10;;;;;;;;;;;;;;;20.86;37.44;99745.47;4973033;28;4243;-53
2022/04/05 12:08:37;;;;;;;;;;;;;;;21.01;35.90;99748.72;4975107;28;3980;-57
2022/04/05 12:11:05;;;;;;;;;;;;;;;21.27;36.15;99732.09;4969259;28;4260;-61
2022/04/05 12:13:31;;;;;;;;;;;;;;;21.51;37.26;99742.81;4974189;28;5089;-62
2022/04/05 12:15:59;;;;;;;;;;;;;;;21.67;37.91;99745.31;4976787;28;5148;-61
2022/04/05 12:18:28;;;;;;;;;;;;;;;19.65;36.07;99744.81;4973879;28;4163;-53
2022/04/05 12:20:58;;;;;;;;;;;;;;;20.19;36.85;99752.91;4964432;28;4111;-53
2022/04/05 12:23:32;;;;;;;;;;;;;;;20.96;36.28;99735.63;4965132;28;5243;-57
2022/04/05 12:26:02;;;;;;;;;;;;;;;21.01;36.69;99742.97;4974512;28;4172;-57
2022/04/05 12:28:28;;;;;;;;;;;;;;;21.10;36.29;99744.66;4974405;28;5362;-51
2022/04/05 12:31:05;;;;;;;;;;;;;;;21.20;35.17;99742.00;4972956;28;5264;-52
2022/04/05 12:33:31;;;;;;;;;;;;;;;20.84;37.03;99742.53;4970777;28;4536;-49
2022/04/05 12:35:57;;;;;;;;;;;;;;;21.14;36.71;99741.84;4979915;28;4540;-48
2022/04/05 12:38:24;;;;;;;;;;;;;;;21.12;36.83;99736.06;4975085;28;5439;-48
2022/04/05 12:40:50;;;;;;;;;;;;;;;21.39;36.60;99725.91;4975283;28;4032;-51
2022/04/05 12:43:17;;;;;;;;;;;;;;;21.51;36.68;99728.41;4970652;28;4558;-51
2022/04/05 12:45:43;;;;;;;;;;;;;;;21.58;36.62;99732.88;4973846;28;4066;-52
2022/04/05 12:48:14;;;;;;;;;;;;;;;21.54;36.87;99727.03;4975968;28;4322;-55
2022/04/05 12:50:43;;;;;;;;;;;;;;;21.43;37.37;99731.06;4976970;28;5252;-52
2022/04/05 12:53:10;;;;;;;;;;;;;;;21.31;37.40;99717.81;4969196;28;4785;-52
2022/04/05 12:55:36;;;;;;;;;;;;;;;21.25;37.71;99726.28;4977764;28;4237;-50
2022/04/05 12:58:03;;;;;;;;;;;;;;;21.20;37.93;99724.00;4973651;28;4262;-53
2022/04/05 13:00:32;;;;;;;;;;;;;;;21.02;38.14;99724.28;4978107;28;5090;-53